Aviation Digital Data Service (ADDS)

Output produced by METARs form (2342 UTC 15 February 2019)
found at http://www.aviationweather.gov/metar/data/
 
METAR text: ZSQD 152300Z VRB01MPS CAVOK M07/M12 Q1031 NOSIG
Conditions at: ZSQD (QINGDAO/TSINGTAO, CN) observed 2300 UTC 15 February 2019
Temperature: -7.0°C (19°F)
Dewpoint: -12.0°C (10°F) [RH = 67%]
Pressure (altimeter): 30.44 inches Hg (1031.0 mb)
Winds: variable direction winds at 2 MPH (2 knots; 1.0 m/s)
Visibility: 6 or more miles (10+ km)
Ceiling: ceiling and visibility are OK
Clouds: unknown
Weather: no significant weather observed at this time

METAR text: ZSQD 152200Z VRB01MPS CAVOK M08/M12 Q1031 NOSIG
Conditions at: ZSQD (QINGDAO/TSINGTAO, CN) observed 2200 UTC 15 February 2019
Temperature: -8.0°C (18°F)
Dewpoint: -12.0°C (10°F) [RH = 73%]
Pressure (altimeter): 30.44 inches Hg (1031.0 mb)
Winds: variable direction winds at 2 MPH (2 knots; 1.0 m/s)
Visibility: 6 or more miles (10+ km)
Ceiling: ceiling and visibility are OK
Clouds: unknown
Weather: no significant weather observed at this time

METAR text: ZSQD 152100Z VRB01MPS CAVOK M07/M11 Q1030 NOSIG
Conditions at: ZSQD (QINGDAO/TSINGTAO, CN) observed 2100 UTC 15 February 2019
Temperature: -7.0°C (19°F)
Dewpoint: -11.0°C (12°F) [RH = 73%]
Pressure (altimeter): 30.41 inches Hg (1030.0 mb)
Winds: variable direction winds at 2 MPH (2 knots; 1.0 m/s)
Visibility: 6 or more miles (10+ km)
Ceiling: ceiling and visibility are OK
Clouds: unknown
Weather: no significant weather observed at this time

METAR text: ZSQD 152000Z 00000MPS CAVOK M07/M10 Q1031 NOSIG
Conditions at: ZSQD (QINGDAO/TSINGTAO, CN) observed 2000 UTC 15 February 2019
Temperature: -7.0°C (19°F)
Dewpoint: -10.0°C (14°F) [RH = 79%]
Pressure (altimeter): 30.44 inches Hg (1031.0 mb)
Winds: calm
Visibility: 6 or more miles (10+ km)
Ceiling: ceiling and visibility are OK
Clouds: unknown
Weather: no significant weather observed at this time

METAR text: ZSQD 151900Z 00000MPS CAVOK M06/M10 Q1031 NOSIG
Conditions at: ZSQD (QINGDAO/TSINGTAO, CN) observed 1900 UTC 15 February 2019
Temperature: -6.0°C (21°F)
Dewpoint: -10.0°C (14°F) [RH = 73%]
Pressure (altimeter): 30.44 inches Hg (1031.0 mb)
Winds: calm
Visibility: 6 or more miles (10+ km)
Ceiling: ceiling and visibility are OK
Clouds: unknown
Weather: no significant weather observed at this time

METAR text: ZSQD 151800Z 32002MPS 290V350 CAVOK M05/M10 Q1031 NOSIG
Conditions at: ZSQD (QINGDAO/TSINGTAO, CN) observed 1800 UTC 15 February 2019
Temperature: -5.0°C (23°F)
Dewpoint: -10.0°C (14°F) [RH = 68%]
Pressure (altimeter): 30.44 inches Hg (1031.0 mb)
Winds: from the NW (320 degrees) at 5 MPH (4 knots; 2.1 m/s)
Visibility: 6 or more miles (10+ km)
Ceiling: ceiling and visibility are OK
Clouds: unknown
Weather: no significant weather observed at this time

METAR text: ZSQD 151700Z 33001MPS CAVOK M05/M10 Q1030 NOSIG
Conditions at: ZSQD (QINGDAO/TSINGTAO, CN) observed 1700 UTC 15 February 2019
Temperature: -5.0°C (23°F)
Dewpoint: -10.0°C (14°F) [RH = 68%]
Pressure (altimeter): 30.41 inches Hg (1030.0 mb)
Winds: from the NNW (330 degrees) at 2 MPH (2 knots; 1.0 m/s)
Visibility: 6 or more miles (10+ km)
Ceiling: ceiling and visibility are OK
Clouds: unknown
Weather: no significant weather observed at this time

METAR text: ZSQD 151600Z 34001MPS CAVOK M05/M10 Q1030 NOSIG
Conditions at: ZSQD (QINGDAO/TSINGTAO, CN) observed 1600 UTC 15 February 2019
Temperature: -5.0°C (23°F)
Dewpoint: -10.0°C (14°F) [RH = 68%]
Pressure (altimeter): 30.41 inches Hg (1030.0 mb)
Winds: from the NNW (340 degrees) at 2 MPH (2 knots; 1.0 m/s)
Visibility: 6 or more miles (10+ km)
Ceiling: ceiling and visibility are OK
Clouds: unknown
Weather: no significant weather observed at this time

METAR text: ZSQD 151500Z 34002MPS CAVOK M04/M10 Q1030 NOSIG
Conditions at: ZSQD (QINGDAO/TSINGTAO, CN) observed 1500 UTC 15 February 2019
Temperature: -4.0°C (25°F)
Dewpoint: -10.0°C (14°F) [RH = 63%]
Pressure (altimeter): 30.41 inches Hg (1030.0 mb)
Winds: from the NNW (340 degrees) at 5 MPH (4 knots; 2.1 m/s)
Visibility: 6 or more miles (10+ km)
Ceiling: ceiling and visibility are OK
Clouds: unknown
Weather: no significant weather observed at this time

METAR text: ZSQD 151400Z 34003MPS CAVOK M05/M10 Q1030 NOSIG
Conditions at: ZSQD (QINGDAO/TSINGTAO, CN) observed 1400 UTC 15 February 2019
Temperature: -5.0°C (23°F)
Dewpoint: -10.0°C (14°F) [RH = 68%]
Pressure (altimeter): 30.41 inches Hg (1030.0 mb)
Winds: from the NNW (340 degrees) at 7 MPH (6 knots; 3.1 m/s)
Visibility: 6 or more miles (10+ km)
Ceiling: ceiling and visibility are OK
Clouds: unknown
Weather: no significant weather observed at this time

METAR text: ZSQD 151300Z 36004MPS CAVOK M04/M10 Q1030 NOSIG
Conditions at: ZSQD (QINGDAO/TSINGTAO, CN) observed 1300 UTC 15 February 2019
Temperature: -4.0°C (25°F)
Dewpoint: -10.0°C (14°F) [RH = 63%]
Pressure (altimeter): 30.41 inches Hg (1030.0 mb)
Winds: from the N (360 degrees) at 9 MPH (8 knots; 4.1 m/s)
Visibility: 6 or more miles (10+ km)
Ceiling: ceiling and visibility are OK
Clouds: unknown
Weather: no significant weather observed at this time

METAR text: ZSQD 151200Z 34005MPS CAVOK M03/M10 Q1029 NOSIG
Conditions at: ZSQD (QINGDAO/TSINGTAO, CN) observed 1200 UTC 15 February 2019
Temperature: -3.0°C (27°F)
Dewpoint: -10.0°C (14°F) [RH = 58%]
Pressure (altimeter): 30.38 inches Hg (1029.0 mb)
Winds: from the NNW (340 degrees) at 12 MPH (10 knots; 5.1 m/s)
Visibility: 6 or more miles (10+ km)
Ceiling: ceiling and visibility are OK
Clouds: unknown
Weather: no significant weather observed at this time

METAR text: ZSQD 151100Z 35006MPS CAVOK M02/M10 Q1029 NOSIG
Conditions at: ZSQD (QINGDAO/TSINGTAO, CN) observed 1100 UTC 15 February 2019
Temperature: -2.0°C (28°F)
Dewpoint: -10.0°C (14°F) [RH = 54%]
Pressure (altimeter): 30.38 inches Hg (1029.0 mb)
Winds: from the N (350 degrees) at 14 MPH (12 knots; 6.2 m/s)
Visibility: 6 or more miles (10+ km)
Ceiling: ceiling and visibility are OK
Clouds: unknown
Weather: no significant weather observed at this time

METAR text: ZSQD 151000Z 34006MPS CAVOK M01/M10 Q1028 NOSIG
Conditions at: ZSQD (QINGDAO/TSINGTAO, CN) observed 1000 UTC 15 February 2019
Temperature: -1.0°C (30°F)
Dewpoint: -10.0°C (14°F) [RH = 50%]
Pressure (altimeter): 30.35 inches Hg (1028.0 mb)
Winds: from the NNW (340 degrees) at 14 MPH (12 knots; 6.2 m/s)
Visibility: 6 or more miles (10+ km)
Ceiling: ceiling and visibility are OK
Clouds: unknown
Weather: no significant weather observed at this time

METAR text: ZSQD 150900Z 34007MPS CAVOK 00/M11 Q1027 NOSIG
Conditions at: ZSQD (QINGDAO/TSINGTAO, CN) observed 0900 UTC 15 February 2019
Temperature: 0.0°C (32°F)
Dewpoint: -11.0°C (12°F) [RH = 43%]
Pressure (altimeter): 30.32 inches Hg (1027.0 mb)
Winds: from the NNW (340 degrees) at 16 MPH (14 knots; 7.2 m/s)
Visibility: 6 or more miles (10+ km)
Ceiling: ceiling and visibility are OK
Clouds: unknown
Weather: no significant weather observed at this time

METAR text: ZSQD 150800Z 33006MPS 300V010 9999 SCT050 01/M10 Q1027 NOSIG
Conditions at: ZSQD (QINGDAO/TSINGTAO, CN) observed 0800 UTC 15 February 2019
Temperature: 1.0°C (34°F)
Dewpoint: -10.0°C (14°F) [RH = 44%]
Pressure (altimeter): 30.32 inches Hg (1027.0 mb)
Winds: from the NNW (330 degrees) at 14 MPH (12 knots; 6.2 m/s)
Visibility: 6 or more miles (10+ km)
Ceiling: at least 12,000 feet AGL
Clouds: scattered clouds at 5000 feet AGL
Weather: no significant weather observed at this time

METAR text: ZSQD 150700Z 31006MPS 280V340 9999 SCT040 02/M08 Q1026 NOSIG
Conditions at: ZSQD (QINGDAO/TSINGTAO, CN) observed 0700 UTC 15 February 2019
Temperature: 2.0°C (36°F)
Dewpoint: -8.0°C (18°F) [RH = 47%]
Pressure (altimeter): 30.30 inches Hg (1026.0 mb)
Winds: from the NW (310 degrees) at 14 MPH (12 knots; 6.2 m/s)
Visibility: 6 or more miles (10+ km)
Ceiling: at least 12,000 feet AGL
Clouds: scattered clouds at 4000 feet AGL
Weather: no significant weather observed at this time

METAR text: ZSQD 150600Z 31005MPS 280V350 9999 SCT033 03/M07 Q1026 NOSIG
Conditions at: ZSQD (QINGDAO/TSINGTAO, CN) observed 0600 UTC 15 February 2019
Temperature: 3.0°C (37°F)
Dewpoint: -7.0°C (19°F) [RH = 48%]
Pressure (altimeter): 30.30 inches Hg (1026.0 mb)
Winds: from the NW (310 degrees) at 12 MPH (10 knots; 5.1 m/s)
Visibility: 6 or more miles (10+ km)
Ceiling: at least 12,000 feet AGL
Clouds: scattered clouds at 3300 feet AGL
Weather: no significant weather observed at this time

METAR text: ZSQD 150500Z 32005MPS 260V350 7000 SCT030 03/M05 Q1027 NOSIG
Conditions at: ZSQD (QINGDAO/TSINGTAO, CN) observed 0500 UTC 15 February 2019
Temperature: 3.0°C (37°F)
Dewpoint: -5.0°C (23°F) [RH = 56%]
Pressure (altimeter): 30.32 inches Hg (1027.0 mb)
Winds: from the NW (320 degrees) at 12 MPH (10 knots; 5.1 m/s)
Visibility: 4 miles ( 7 km)
Ceiling: at least 12,000 feet AGL
Clouds: scattered clouds at 3000 feet AGL
Weather: no significant weather observed at this time

METAR text: ZSQD 150400Z 31005MPS 280V350 5000 HZ SCT026 03/M04 Q1027 NOSIG
Conditions at: ZSQD (QINGDAO/TSINGTAO, CN) observed 0400 UTC 15 February 2019
Temperature: 3.0°C (37°F)
Dewpoint: -4.0°C (25°F) [RH = 60%]
Pressure (altimeter): 30.32 inches Hg (1027.0 mb)
Winds: from the NW (310 degrees) at 12 MPH (10 knots; 5.1 m/s)
Visibility: 3 miles ( 5 km)
Ceiling: at least 12,000 feet AGL
Clouds: scattered clouds at 2600 feet AGL
Weather: HZ  (haze)

METAR text: ZSQD 150300Z 31005MPS 270V340 3500 BR BKN020 OVC030 00/M04 Q1028 NOSIG
Conditions at: ZSQD (QINGDAO/TSINGTAO, CN) observed 0300 UTC 15 February 2019
Temperature: 0.0°C (32°F)
Dewpoint: -4.0°C (25°F) [RH = 74%]
Pressure (altimeter): 30.35 inches Hg (1028.0 mb)
Winds: from the NW (310 degrees) at 12 MPH (10 knots; 5.1 m/s)
Visibility: 2.17 miles (3.49 km)
Ceiling: 2000 feet AGL
Clouds: broken clouds at 2000 feet AGL
overcast cloud deck at 3000 feet AGL
Weather: BR  (mist)

METAR text: ZSQD 150200Z 33005MPS 2500 BR SCT012 OVC020 M00/M02 Q1028 BECMG TL0330 3000
Conditions at: ZSQD (QINGDAO/TSINGTAO, CN) observed 0200 UTC 15 February 2019
Temperature: 0.0°C (32°F)
Dewpoint: -2.0°C (28°F) [RH = 86%]
Pressure (altimeter): 30.35 inches Hg (1028.0 mb)
Winds: from the NNW (330 degrees) at 12 MPH (10 knots; 5.1 m/s)
Visibility: 1.55 miles (2.49 km)
Ceiling: 2000 feet AGL
Clouds: scattered clouds at 1200 feet AGL
overcast cloud deck at 2000 feet AGL
Weather: BR  (mist)

METAR text: ZSQD 150100Z 34004MPS 300V360 2000 BR SCT008 OVC020 M00/M02 Q1028 BECMG TL0250 3000
Conditions at: ZSQD (QINGDAO/TSINGTAO, CN) observed 0100 UTC 15 February 2019
Temperature: 0.0°C (32°F)
Dewpoint: -2.0°C (28°F) [RH = 86%]
Pressure (altimeter): 30.35 inches Hg (1028.0 mb)
Winds: from the NNW (340 degrees) at 9 MPH (8 knots; 4.1 m/s)
Visibility: 1.24 miles (2.00 km)
Ceiling: 2000 feet AGL
Clouds: scattered clouds at 800 feet AGL
overcast cloud deck at 2000 feet AGL
Weather: BR  (mist)

METAR text: ZSQD 150000Z 32004MPS 2500 BR SCT008 OVC017 M00/M02 Q1028 BECMG TL0130 3000
Conditions at: ZSQD (QINGDAO/TSINGTAO, CN) observed 0000 UTC 15 February 2019
Temperature: 0.0°C (32°F)
Dewpoint: -2.0°C (28°F) [RH = 86%]
Pressure (altimeter): 30.35 inches Hg (1028.0 mb)
Winds: from the NW (320 degrees) at 9 MPH (8 knots; 4.1 m/s)
Visibility: 1.55 miles (2.49 km)
Ceiling: 1700 feet AGL
Clouds: scattered clouds at 800 feet AGL
overcast cloud deck at 1700 feet AGL
Weather: BR  (mist)

METAR text: ZSQD 142300Z 30003MPS 2500 BR SCT008 OVC017 M00/M01 Q1027 BECMG TL2350 3000 BR
Conditions at: ZSQD (QINGDAO/TSINGTAO, CN) observed 2300 UTC 14 February 2019
Temperature: 0.0°C (32°F)
Dewpoint: -1.0°C (30°F) [RH = 93%]
Pressure (altimeter): 30.32 inches Hg (1027.0 mb)
Winds: from the WNW (300 degrees) at 7 MPH (6 knots; 3.1 m/s)
Visibility: 1.55 miles (2.49 km)
Ceiling: 1700 feet AGL
Clouds: scattered clouds at 800 feet AGL
overcast cloud deck at 1700 feet AGL
Weather: BR  (mist)

METAR text: ZSQD 142200Z 28002MPS 250V320 4000 -SN BR SCT015 OVC020 M00/M02 Q1027 BECMG TL2250 2500 -SN BR
Conditions at: ZSQD (QINGDAO/TSINGTAO, CN) observed 2200 UTC 14 February 2019
Temperature: 0.0°C (32°F)
Dewpoint: -2.0°C (28°F) [RH = 86%]
Pressure (altimeter): 30.32 inches Hg (1027.0 mb)
Winds: from the W (280 degrees) at 5 MPH (4 knots; 2.1 m/s)
Visibility: 2.49 miles (4.01 km)
Ceiling: 2000 feet AGL
Clouds: scattered clouds at 1500 feet AGL
overcast cloud deck at 2000 feet AGL
Weather: -SN BR  (light snow, mist)

METAR text: ZSQD 142100Z 30003MPS 6000 -SN SCT015 OVC020 M00/M01 Q1027 NOSIG
Conditions at: ZSQD (QINGDAO/TSINGTAO, CN) observed 2100 UTC 14 February 2019
Temperature: 0.0°C (32°F)
Dewpoint: -1.0°C (30°F) [RH = 93%]
Pressure (altimeter): 30.32 inches Hg (1027.0 mb)
Winds: from the WNW (300 degrees) at 7 MPH (6 knots; 3.1 m/s)
Visibility: 4 miles ( 6 km)
Ceiling: 2000 feet AGL
Clouds: scattered clouds at 1500 feet AGL
overcast cloud deck at 2000 feet AGL
Weather: -SN  (light snow)

METAR text: ZSQD 142000Z 19001MPS 6000 -SNRA SCT015 BKN023 00/M03 Q1026 NOSIG
Conditions at: ZSQD (QINGDAO/TSINGTAO, CN) observed 2000 UTC 14 February 2019
Temperature: 0.0°C (32°F)
Dewpoint: -3.0°C (27°F) [RH = 80%]
Pressure (altimeter): 30.30 inches Hg (1026.0 mb)
Winds: from the S (190 degrees) at 2 MPH (2 knots; 1.0 m/s)
Visibility: 4 miles ( 6 km)
Ceiling: 2300 feet AGL
Clouds: scattered clouds at 1500 feet AGL
broken clouds at 2300 feet AGL
Weather: -SN -RA  (light snow, light rain)

METAR text: ZSQD 141900Z 20002MPS 9999 -SN BKN030 00/M04 Q1027 NOSIG
Conditions at: ZSQD (QINGDAO/TSINGTAO, CN) observed 1900 UTC 14 February 2019
Temperature: 0.0°C (32°F)
Dewpoint: -4.0°C (25°F) [RH = 74%]
Pressure (altimeter): 30.32 inches Hg (1027.0 mb)
Winds: from the SSW (200 degrees) at 5 MPH (4 knots; 2.1 m/s)
Visibility: 6 or more miles (10+ km)
Ceiling: 3000 feet AGL
Clouds: broken clouds at 3000 feet AGL
Weather: -SN  (light snow)

METAR text: ZSQD 141800Z 17002MPS 9999 -SN BKN030 00/M04 Q1027 NOSIG
Conditions at: ZSQD (QINGDAO/TSINGTAO, CN) observed 1800 UTC 14 February 2019
Temperature: 0.0°C (32°F)
Dewpoint: -4.0°C (25°F) [RH = 74%]
Pressure (altimeter): 30.32 inches Hg (1027.0 mb)
Winds: from the S (170 degrees) at 5 MPH (4 knots; 2.1 m/s)
Visibility: 6 or more miles (10+ km)
Ceiling: 3000 feet AGL
Clouds: broken clouds at 3000 feet AGL
Weather: -SN  (light snow)

METAR text: ZSQD 141700Z 15003MPS 9999 BKN040 M00/M05 Q1028 NOSIG
Conditions at: ZSQD (QINGDAO/TSINGTAO, CN) observed 1700 UTC 14 February 2019
Temperature: 0.0°C (32°F)
Dewpoint: -5.0°C (23°F) [RH = 69%]
Pressure (altimeter): 30.35 inches Hg (1028.0 mb)
Winds: from the SSE (150 degrees) at 7 MPH (6 knots; 3.1 m/s)
Visibility: 6 or more miles (10+ km)
Ceiling: 4000 feet AGL
Clouds: broken clouds at 4000 feet AGL
Weather: no significant weather observed at this time

METAR text: ZSQD 141600Z 15002MPS 9999 -SN BKN040 M00/M04 Q1029 NOSIG
Conditions at: ZSQD (QINGDAO/TSINGTAO, CN) observed 1600 UTC 14 February 2019
Temperature: 0.0°C (32°F)
Dewpoint: -4.0°C (25°F) [RH = 74%]
Pressure (altimeter): 30.38 inches Hg (1029.0 mb)
Winds: from the SSE (150 degrees) at 5 MPH (4 knots; 2.1 m/s)
Visibility: 6 or more miles (10+ km)
Ceiling: 4000 feet AGL
Clouds: broken clouds at 4000 feet AGL
Weather: -SN  (light snow)

METAR text: ZSQD 141500Z 17002MPS 9999 -RASN NSC M00/M04 Q1029 NOSIG
Conditions at: ZSQD (QINGDAO/TSINGTAO, CN) observed 1500 UTC 14 February 2019
Temperature: 0.0°C (32°F)
Dewpoint: -4.0°C (25°F) [RH = 74%]
Pressure (altimeter): 30.38 inches Hg (1029.0 mb)
Winds: from the S (170 degrees) at 5 MPH (4 knots; 2.1 m/s)
Visibility: 6 or more miles (10+ km)
Ceiling: at least 12,000 feet AGL
Clouds: sky clear below 12,000 feet AGL
Weather: -RA -SN  (light rain, light snow)

METAR text: ZSQD 141400Z VRB01MPS 6000 -SN NSC M01/M04 Q1030 NOSIG
Conditions at: ZSQD (QINGDAO/TSINGTAO, CN) observed 1400 UTC 14 February 2019
Temperature: -1.0°C (30°F)
Dewpoint: -4.0°C (25°F) [RH = 80%]
Pressure (altimeter): 30.41 inches Hg (1030.0 mb)
Winds: variable direction winds at 2 MPH (2 knots; 1.0 m/s)
Visibility: 4 miles ( 6 km)
Ceiling: at least 12,000 feet AGL
Clouds: sky clear below 12,000 feet AGL
Weather: -SN  (light snow)

METAR text: ZSQD 141300Z 26001MPS 6000 -SN BKN040 M00/M04 Q1030 NOSIG
Conditions at: ZSQD (QINGDAO/TSINGTAO, CN) observed 1300 UTC 14 February 2019
Temperature: 0.0°C (32°F)
Dewpoint: -4.0°C (25°F) [RH = 74%]
Pressure (altimeter): 30.41 inches Hg (1030.0 mb)
Winds: from the W (260 degrees) at 2 MPH (2 knots; 1.0 m/s)
Visibility: 4 miles ( 6 km)
Ceiling: 4000 feet AGL
Clouds: broken clouds at 4000 feet AGL
Weather: -SN  (light snow)

METAR text: ZSQD 141200Z 22002MPS CAVOK 01/M07 Q1031 NOSIG
Conditions at: ZSQD (QINGDAO/TSINGTAO, CN) observed 1200 UTC 14 February 2019
Temperature: 1.0°C (34°F)
Dewpoint: -7.0°C (19°F) [RH = 55%]
Pressure (altimeter): 30.44 inches Hg (1031.0 mb)
Winds: from the SW (220 degrees) at 5 MPH (4 knots; 2.1 m/s)
Visibility: 6 or more miles (10+ km)
Ceiling: ceiling and visibility are OK
Clouds: unknown
Weather: no significant weather observed at this time

Forecast for: ZSQD (QINGDAO/TSINGTAO, CN)
Text: TAF ZSQD 151905Z 1600/1624 35004MPS CAVOK TX05/1606Z TNM07/21Z
Forecast period: 0000 UTC 16 February 2019 to 0000 UTC 17 February 2019
Forecast type: FROM: standard forecast or significant change
Winds: from the N (350 degrees) at 9 MPH (8 knots; 4.1 m/s)
Visibility: 6 or more miles 10+ km)
Ceiling: unknown
Clouds: missing
Weather: no significant weather forecast for this period